Time;durP1;ratioP1;P1;durP2;ratioP2;P2;SDS_P1;SDS_P2;PMS_P1;PMS_P2;Temp;Humidity;BMP_temperature;BMP_pressure;BME280_temperature;BME280_humidity;BME280_pressure;Samples;Min_cycle;Max_cycle;Signal;HPM_P1;HPM_P2
2023/05/23 00:01:30;;;;;;;1.60;1.42;;;;;;;;;;5035812;28;20086;-76
2023/05/23 00:03:56;;;;;;;1.88;1.33;;;;;;;;;;5039797;28;20132;-76
2023/05/23 00:06:22;;;;;;;2.28;1.40;;;;;;;;;;5039098;28;20139;-77
2023/05/23 00:08:48;;;;;;;2.65;1.38;;;;;;;;;;5036612;28;20531;-76
2023/05/23 00:11:14;;;;;;;2.20;1.48;;;;;;;;;;5046481;28;20392;-76
2023/05/23 00:13:41;;;;;;;2.35;1.65;;;;;;;;;;5032357;28;20511;-76
2023/05/23 00:16:08;;;;;;;1.98;1.33;;;;;;;;;;5036095;28;20025;-76
2023/05/23 00:18:34;;;;;;;1.88;1.30;;;;;;;;;;5033335;28;20037;-76
2023/05/23 00:21:01;;;;;;;2.80;1.73;;;;;;;;;;5036994;28;20029;-77
2023/05/23 00:23:28;;;;;;;2.42;1.40;;;;;;;;;;5038876;28;20041;-76
2023/05/23 00:25:54;;;;;;;1.67;1.20;;;;;;;;;;5042121;28;20561;-76
2023/05/23 00:28:21;;;;;;;1.80;1.50;;;;;;;;;;5034981;28;20082;-76
2023/05/23 00:30:50;;;;;;;1.50;1.10;;;;;;;;;;5033654;28;20096;-77
2023/05/23 00:33:20;;;;;;;1.95;1.23;;;;;;;;;;5040492;28;20124;-76
2023/05/23 00:35:46;;;;;;;1.30;1.20;;;;;;;;;;5026400;28;20026;-76
2023/05/23 00:38:13;;;;;;;1.40;1.20;;;;;;;;;;5035729;28;20121;-76
2023/05/23 00:40:39;;;;;;;0.85;0.80;;;;;;;;;;5035172;28;20074;-76
2023/05/23 00:43:07;;;;;;;2.45;1.50;;;;;;;;;;5035840;28;20025;-76
2023/05/23 00:45:33;;;;;;;1.92;1.35;;;;;;;;;;5044525;28;20072;-76
2023/05/23 00:47:59;;;;;;;1.27;1.17;;;;;;;;;;5030929;28;20468;-76
2023/05/23 00:50:29;;;;;;;1.50;1.40;;;;;;;;;;5034793;28;20033;-75
2023/05/23 00:52:56;;;;;;;2.42;1.50;;;;;;;;;;5042550;28;20028;-76
2023/05/23 00:55:23;;;;;;;1.63;1.13;;;;;;;;;;5041901;28;20467;-75
2023/05/23 00:57:50;;;;;;;2.40;1.15;;;;;;;;;;5041562;28;20029;-76
2023/05/23 01:00:18;;;;;;;2.80;1.08;;;;;;;;;;5044396;28;20016;-77
2023/05/23 01:02:45;;;;;;;1.45;1.02;;;;;;;;;;5041723;28;20048;-76
2023/05/23 01:05:13;;;;;;;1.77;1.13;;;;;;;;;;5037495;28;20395;-76
2023/05/23 01:07:39;;;;;;;2.92;1.52;;;;;;;;;;5037035;28;20037;-76
2023/05/23 01:10:05;;;;;;;1.20;1.08;;;;;;;;;;5040387;28;20025;-76
2023/05/23 01:12:47;;;;;;;2.08;1.60;;;;;;;;;;5036234;28;20038;-76
2023/05/23 01:15:13;;;;;;;;;;;;;;;;;;5043414;28;20025;-76
2023/05/23 01:17:43;;;;;;;1.33;1.20;;;;;;;;;;5036186;28;19908;-76
2023/05/23 01:20:14;;;;;;;2.42;1.40;;;;;;;;;;5038080;28;20163;-76
2023/05/23 01:23:04;;;;;;;1.75;1.20;;;;;;;;;;5037715;28;20136;-76
2023/05/23 01:25:45;;;;;;;2.33;1.38;;;;;;;;;;5041273;28;20552;-76
2023/05/23 01:28:11;;;;;;;;;;;;;;;;;;5037939;28;20025;-76
2023/05/23 01:30:39;;;;;;;1.50;1.40;;;;;;;;;;5039085;28;20663;-76
2023/05/23 01:33:08;;;;;;;1.30;1.15;;;;;;;;;;5041074;28;20135;-77
2023/05/23 01:35:34;;;;;;;2.15;1.33;;;;;;;;;;5045636;28;20056;-76
2023/05/23 01:38:00;;;;;;;1.60;1.17;;;;;;;;;;5035487;28;20020;-76
2023/05/23 01:40:26;;;;;;;2.28;1.13;;;;;;;;;;5042218;28;20101;-76
2023/05/23 01:42:54;;;;;;;1.95;1.42;;;;;;;;;;5043802;28;20033;-76
2023/05/23 01:45:20;;;;;;;1.90;1.20;;;;;;;;;;5041308;28;20025;-76
2023/05/23 01:47:48;;;;;;;1.50;1.13;;;;;;;;;;5035122;28;20082;-76
2023/05/23 01:50:14;;;;;;;1.88;1.30;;;;;;;;;;5032392;28;20032;-76
2023/05/23 01:52:40;;;;;;;2.53;1.52;;;;;;;;;;5037639;28;20025;-76
2023/05/23 01:55:08;;;;;;;2.88;1.45;;;;;;;;;;5036460;28;20483;-76
2023/05/23 01:57:35;;;;;;;1.35;1.20;;;;;;;;;;5032898;28;20029;-77
2023/05/23 02:00:01;;;;;;;1.10;1.00;;;;;;;;;;5035949;28;20533;-76
2023/05/23 02:02:28;;;;;;;1.13;1.00;;;;;;;;;;5030337;28;20025;-75
2023/05/23 02:04:56;;;;;;;1.30;0.93;;;;;;;;;;5042653;28;20040;-76
2023/05/23 02:07:22;;;;;;;1.77;1.17;;;;;;;;;;5037869;28;20115;-76
2023/05/23 02:09:48;;;;;;;1.40;1.02;;;;;;;;;;5035406;28;20028;-76
2023/05/23 02:12:14;;;;;;;1.55;1.15;;;;;;;;;;5041414;28;20048;-76
2023/05/23 02:14:41;;;;;;;2.05;1.30;;;;;;;;;;5039336;28;20025;-76
2023/05/23 02:17:08;;;;;;;1.00;0.90;;;;;;;;;;5042878;28;20009;-76
2023/05/23 02:19:34;;;;;;;1.80;1.17;;;;;;;;;;5043453;28;20029;-76
2023/05/23 02:22:00;;;;;;;1.63;1.40;;;;;;;;;;5040430;28;20017;-76
2023/05/23 02:24:26;;;;;;;1.73;1.23;;;;;;;;;;5040549;28;20047;-76
2023/05/23 02:26:52;;;;;;;2.42;1.00;;;;;;;;;;5039024;28;20021;-76
2023/05/23 02:29:19;;;;;;;1.42;1.10;;;;;;;;;;5037066;28;20033;-76
2023/05/23 02:31:45;;;;;;;2.53;1.23;;;;;;;;;;5035217;28;20098;-76
2023/05/23 02:34:11;;;;;;;1.15;1.00;;;;;;;;;;5039930;28;20029;-76
2023/05/23 02:36:38;;;;;;;1.85;0.90;;;;;;;;;;5037748;28;20383;-77
2023/05/23 02:39:04;;;;;;;1.38;1.20;;;;;;;;;;5034916;28;20052;-75
2023/05/23 02:41:30;;;;;;;1.75;1.10;;;;;;;;;;5032756;28;20304;-76
2023/05/23 02:43:56;;;;;;;1.92;1.10;;;;;;;;;;5037092;28;20032;-76
2023/05/23 02:46:22;;;;;;;1.77;1.50;;;;;;;;;;5037014;28;20541;-76
2023/05/23 02:48:48;;;;;;;1.60;1.33;;;;;;;;;;5035044;28;20037;-76
2023/05/23 02:51:14;;;;;;;1.40;1.00;;;;;;;;;;5037122;28;20045;-76
2023/05/23 02:53:40;;;;;;;1.90;1.15;;;;;;;;;;5031592;28;20068;-76
2023/05/23 02:56:07;;;;;;;1.50;1.25;;;;;;;;;;5045297;28;20029;-76
2023/05/23 02:58:34;;;;;;;2.70;1.63;;;;;;;;;;5033700;28;20045;-75
2023/05/23 03:01:01;;;;;;;1.88;1.27;;;;;;;;;;5037063;28;20075;-76
2023/05/23 03:03:27;;;;;;;2.47;1.52;;;;;;;;;;5034883;28;20049;-76
2023/05/23 03:05:54;;;;;;;2.15;1.15;;;;;;;;;;5036082;28;20029;-76
2023/05/23 03:08:20;;;;;;;1.00;0.90;;;;;;;;;;5033545;28;20467;-76
2023/05/23 03:10:46;;;;;;;1.70;1.33;;;;;;;;;;5031219;28;20387;-76
2023/05/23 03:13:12;;;;;;;1.40;1.10;;;;;;;;;;5038321;28;20045;-76
2023/05/23 03:15:38;;;;;;;2.25;1.20;;;;;;;;;;5030137;28;20095;-76
2023/05/23 03:18:04;;;;;;;2.05;1.20;;;;;;;;;;5036874;28;20658;-76
2023/05/23 03:20:30;;;;;;;1.50;1.17;;;;;;;;;;5038512;28;20021;-76
2023/05/23 03:22:56;;;;;;;1.60;1.10;;;;;;;;;;5037087;28;20206;-75
2023/05/23 03:25:22;;;;;;;1.70;1.05;;;;;;;;;;5040667;28;20483;-76
2023/05/23 03:27:48;;;;;;;1.27;1.00;;;;;;;;;;5035484;28;20075;-76
2023/05/23 03:30:14;;;;;;;3.30;1.40;;;;;;;;;;5035562;28;20475;-76
2023/05/23 03:32:40;;;;;;;2.22;1.27;;;;;;;;;;5040394;28;20047;-76
2023/05/23 03:35:06;;;;;;;1.58;1.17;;;;;;;;;;5038669;28;20021;-77
2023/05/23 03:37:32;;;;;;;2.15;1.27;;;;;;;;;;5039350;28;20059;-76
2023/05/23 03:39:58;;;;;;;2.42;1.38;;;;;;;;;;5028900;28;20099;-76
2023/05/23 03:42:24;;;;;;;1.70;1.15;;;;;;;;;;5035955;28;20483;-76
2023/05/23 03:44:50;;;;;;;1.70;1.23;;;;;;;;;;5037125;28;20033;-76
2023/05/23 03:47:16;;;;;;;1.08;1.00;;;;;;;;;;5030370;28;20029;-75
2023/05/23 03:49:44;;;;;;;1.63;1.20;;;;;;;;;;5040365;28;20155;-76
2023/05/23 03:52:10;;;;;;;1.20;1.10;;;;;;;;;;5033682;28;20037;-75
2023/05/23 03:54:36;;;;;;;1.50;1.23;;;;;;;;;;5044008;28;20025;-75
2023/05/23 03:57:02;;;;;;;1.60;1.38;;;;;;;;;;5040869;28;21856;-76
2023/05/23 03:59:28;;;;;;;1.30;1.20;;;;;;;;;;5037634;28;20029;-75
2023/05/23 04:01:57;;;;;;;1.63;1.20;;;;;;;;;;5035955;28;20025;-75
2023/05/23 04:04:23;;;;;;;1.23;1.10;;;;;;;;;;5039930;28;20045;-75
2023/05/23 04:06:49;;;;;;;1.42;1.10;;;;;;;;;;5030043;28;20029;-76
2023/05/23 04:09:15;;;;;;;1.13;1.02;;;;;;;;;;5046691;28;20025;-76
2023/05/23 04:11:41;;;;;;;1.38;1.10;;;;;;;;;;5039348;28;20136;-75
2023/05/23 04:14:07;;;;;;;2.15;1.15;;;;;;;;;;5035935;28;20033;-75
2023/05/23 04:16:34;;;;;;;2.13;1.10;;;;;;;;;;5034175;28;20573;-75
2023/05/23 04:19:01;;;;;;;2.10;1.33;;;;;;;;;;5043564;28;20116;-76
2023/05/23 04:21:27;;;;;;;1.42;1.00;;;;;;;;;;5033717;28;20777;-75
2023/05/23 04:23:53;;;;;;;1.27;1.15;;;;;;;;;;5025341;28;20025;-76
2023/05/23 04:26:19;;;;;;;1.63;1.15;;;;;;;;;;5040688;28;20036;-75
2023/05/23 04:28:45;;;;;;;1.15;1.00;;;;;;;;;;5032907;28;20029;-76
2023/05/23 04:31:12;;;;;;;1.27;1.17;;;;;;;;;;5031802;28;20025;-76
2023/05/23 04:33:38;;;;;;;2.22;1.48;;;;;;;;;;5034481;28;20069;-76
2023/05/23 04:36:07;;;;;;;1.63;1.20;;;;;;;;;;5036638;28;20028;-76
2023/05/23 04:38:33;;;;;;;2.33;1.33;;;;;;;;;;5033393;28;20032;-76
2023/05/23 04:40:59;;;;;;;1.55;1.13;;;;;;;;;;5041373;28;20032;-76
2023/05/23 04:43:28;;;;;;;2.00;1.30;;;;;;;;;;5041980;28;20029;-76
2023/05/23 04:45:54;;;;;;;1.23;0.98;;;;;;;;;;5034356;28;20033;-75
2023/05/23 04:48:22;;;;;;;2.58;1.05;;;;;;;;;;5039796;28;20041;-76
2023/05/23 04:50:50;;;;;;;0.98;0.88;;;;;;;;;;5039862;28;20033;-75
2023/05/23 04:53:16;;;;;;;1.25;1.08;;;;;;;;;;5035759;28;20492;-76
2023/05/23 04:55:42;;;;;;;1.63;1.17;;;;;;;;;;5041895;28;20132;-75
2023/05/23 04:58:08;;;;;;;1.63;1.30;;;;;;;;;;5035222;28;20440;-77
2023/05/23 05:00:34;;;;;;;1.40;1.15;;;;;;;;;;5034038;28;20025;-75
2023/05/23 05:03:00;;;;;;;1.10;0.82;;;;;;;;;;5036404;28;20092;-75
2023/05/23 05:05:26;;;;;;;1.30;1.00;;;;;;;;;;5028383;28;20492;-75
2023/05/23 05:07:52;;;;;;;1.92;1.20;;;;;;;;;;5044469;28;20024;-76
2023/05/23 05:10:19;;;;;;;1.67;1.10;;;;;;;;;;5036155;28;20632;-73
2023/05/23 05:12:48;;;;;;;1.80;1.27;;;;;;;;;;5040984;28;20086;-74
2023/05/23 05:15:14;;;;;;;2.25;1.45;;;;;;;;;;5038050;28;20040;-87
2023/05/23 05:17:40;;;;;;;1.60;0.98;;;;;;;;;;5035704;28;20033;-79
2023/05/23 05:20:07;;;;;;;2.35;1.50;;;;;;;;;;5031855;28;20079;-78
2023/05/23 05:22:34;;;;;;;1.73;1.13;;;;;;;;;;5041029;28;20098;-77
2023/05/23 05:25:01;;;;;;;1.73;1.42;;;;;;;;;;5041683;28;20581;-76
2023/05/23 05:27:27;;;;;;;1.35;1.00;;;;;;;;;;5022507;28;20030;-77
2023/05/23 05:29:57;;;;;;;1.55;1.20;;;;;;;;;;5038004;28;20137;-75
2023/05/23 05:32:23;;;;;;;1.15;1.05;;;;;;;;;;5043963;28;20049;-76
2023/05/23 05:34:58;;;;;;;1.85;1.42;;;;;;;;;;5040281;28;20021;-74
2023/05/23 05:37:23;;;;;;;4.28;1.73;;;;;;;;;;5041740;28;20090;-74
2023/05/23 05:39:49;;;;;;;1.02;1.00;;;;;;;;;;5041716;28;20036;-75
2023/05/23 05:42:15;;;;;;;1.50;1.20;;;;;;;;;;5046006;28;20025;-74
2023/05/23 05:44:41;;;;;;;1.73;1.33;;;;;;;;;;5042140;28;20155;-75
2023/05/23 05:47:07;;;;;;;2.42;1.50;;;;;;;;;;5048672;28;20032;-75
2023/05/23 05:49:33;;;;;;;3.30;0.93;;;;;;;;;;5050834;28;20471;-75
2023/05/23 05:51:59;;;;;;;1.33;1.17;;;;;;;;;;5050818;28;20032;-75
2023/05/23 05:54:25;;;;;;;3.58;1.30;;;;;;;;;;5048224;28;20025;-74
2023/05/23 05:56:51;;;;;;;6.13;1.10;;;;;;;;;;5050931;28;20017;-76
2023/05/23 05:59:17;;;;;;;2.03;1.38;;;;;;;;;;5050629;28;20100;-74
2023/05/23 06:01:43;;;;;;;1.27;1.17;;;;;;;;;;5032113;28;20033;-74
2023/05/23 06:04:09;;;;;;;1.50;0.98;;;;;;;;;;5035467;28;20044;-75
2023/05/23 06:06:35;;;;;;;7.88;1.65;;;;;;;;;;5046318;28;20040;-75
2023/05/23 06:09:01;;;;;;;1.95;1.27;;;;;;;;;;5064987;28;20044;-75
2023/05/23 06:11:27;;;;;;;1.25;1.10;;;;;;;;;;5051561;28;20063;-74
2023/05/23 06:13:53;;;;;;;1.20;1.10;;;;;;;;;;5048932;28;20051;-75
2023/05/23 06:16:19;;;;;;;1.42;1.20;;;;;;;;;;5050585;28;20056;-75
2023/05/23 06:18:45;;;;;;;1.70;1.42;;;;;;;;;;5049041;28;20025;-76
2023/05/23 06:21:11;;;;;;;2.00;1.30;;;;;;;;;;5060376;28;20078;-79
2023/05/23 06:23:37;;;;;;;2.45;1.40;;;;;;;;;;5046776;28;20048;-78
2023/05/23 06:26:06;;;;;;;2.45;1.38;;;;;;;;;;5050181;28;20028;-79
2023/05/23 06:28:33;;;;;;;2.08;1.33;;;;;;;;;;5054447;28;20029;-79
2023/05/23 06:30:59;;;;;;;1.23;1.13;;;;;;;;;;5051534;28;20112;-80
2023/05/23 06:33:25;;;;;;;1.33;1.13;;;;;;;;;;5045717;28;20021;-79
2023/05/23 06:35:51;;;;;;;3.92;1.48;;;;;;;;;;5049216;28;20036;-80
2023/05/23 06:38:17;;;;;;;2.05;1.20;;;;;;;;;;5047508;28;20017;-80
2023/05/23 06:40:43;;;;;;;2.65;1.13;;;;;;;;;;5049580;28;20426;-80
2023/05/23 06:43:09;;;;;;;1.52;1.30;;;;;;;;;;5068130;28;20017;-80
2023/05/23 06:45:37;;;;;;;1.15;1.05;;;;;;;;;;5070152;28;20024;-79
2023/05/23 06:48:02;;;;;;;1.63;1.30;;;;;;;;;;5048650;28;20044;-79
2023/05/23 06:50:29;;;;;;;2.42;1.13;;;;;;;;;;5049849;28;20052;-78
2023/05/23 06:52:55;;;;;;;1.58;1.10;;;;;;;;;;5061148;28;20349;-79
2023/05/23 06:55:29;;;;;;;1.95;1.00;;;;;;;;;;5043185;28;20033;-79
2023/05/23 06:57:55;;;;;;;2.60;1.52;;;;;;;;;;5032756;28;20034;-80
2023/05/23 07:00:21;;;;;;;3.15;1.10;;;;;;;;;;5042645;28;20036;-80
2023/05/23 07:02:47;;;;;;;2.45;1.50;;;;;;;;;;5046289;28;20021;-79
2023/05/23 07:05:14;;;;;;;1.83;1.27;;;;;;;;;;5042227;28;20060;-79
2023/05/23 07:07:40;;;;;;;2.13;1.38;;;;;;;;;;5038422;28;20037;-79
2023/05/23 07:10:07;;;;;;;1.33;1.00;;;;;;;;;;5039517;28;20106;-78
2023/05/23 07:12:33;;;;;;;2.20;1.55;;;;;;;;;;5038210;28;20034;-78
2023/05/23 07:14:59;;;;;;;10.48;1.50;;;;;;;;;;5040941;28;20029;-78
2023/05/23 07:17:25;;;;;;;2.63;1.45;;;;;;;;;;5039876;28;20049;-78
2023/05/23 07:19:51;;;;;;;3.15;1.83;;;;;;;;;;5043608;28;20060;-79
2023/05/23 07:22:16;;;;;;;5.57;1.30;;;;;;;;;;5046186;28;20670;-79
2023/05/23 07:24:42;;;;;;;1.95;1.00;;;;;;;;;;5038340;28;20025;-78
2023/05/23 07:27:08;;;;;;;2.08;1.40;;;;;;;;;;5040219;28;20033;-78
2023/05/23 07:29:35;;;;;;;2.78;1.83;;;;;;;;;;5037431;28;20037;-79
2023/05/23 07:32:01;;;;;;;3.67;1.42;;;;;;;;;;5045488;28;20028;-78
2023/05/23 07:34:28;;;;;;;2.72;1.70;;;;;;;;;;5033578;28;20225;-78
2023/05/23 07:36:53;;;;;;;2.72;1.52;;;;;;;;;;5035388;28;20063;-76
2023/05/23 07:39:21;;;;;;;2.88;1.67;;;;;;;;;;5043065;28;20041;-78
2023/05/23 07:41:48;;;;;;;2.35;1.60;;;;;;;;;;5036659;28;20020;-77
2023/05/23 07:44:14;;;;;;;4.10;1.40;;;;;;;;;;5040024;28;20029;-82
2023/05/23 07:46:40;;;;;;;1.92;1.42;;;;;;;;;;5033551;28;20029;-84
2023/05/23 07:49:06;;;;;;;1.85;1.65;;;;;;;;;;5042112;28;20048;-79
2023/05/23 07:51:32;;;;;;;2.40;1.70;;;;;;;;;;5038413;28;20080;-82
2023/05/23 07:53:58;;;;;;;3.85;1.65;;;;;;;;;;5041977;28;20082;-82
2023/05/23 07:56:24;;;;;;;3.08;1.80;;;;;;;;;;5046686;28;20552;-84
2023/05/23 07:58:50;;;;;;;2.15;1.75;;;;;;;;;;5034036;28;20056;-79
2023/05/23 08:01:17;;;;;;;1.83;1.42;;;;;;;;;;5040461;28;20506;-78
2023/05/23 08:03:43;;;;;;;2.42;1.80;;;;;;;;;;5042515;28;20386;-77
2023/05/23 08:06:09;;;;;;;2.10;1.77;;;;;;;;;;5046726;28;20565;-80
2023/05/23 08:08:36;;;;;;;1.95;1.63;;;;;;;;;;5045919;28;20113;-79
2023/05/23 08:11:02;;;;;;;3.13;1.73;;;;;;;;;;5037616;28;20827;-79
2023/05/23 08:13:28;;;;;;;4.55;2.13;;;;;;;;;;5043169;28;20068;-79
2023/05/23 08:15:54;;;;;;;1.98;1.33;;;;;;;;;;5046187;28;20033;-78
2023/05/23 08:18:20;;;;;;;1.63;1.45;;;;;;;;;;5049011;28;20021;-78
2023/05/23 08:20:46;;;;;;;2.03;1.50;;;;;;;;;;5036461;28;20162;-84
2023/05/23 08:23:13;;;;;;;2.30;1.50;;;;;;;;;;5032872;28;20033;-78
2023/05/23 08:25:39;;;;;;;2.10;1.65;;;;;;;;;;5048595;28;20028;-77
2023/05/23 08:28:05;;;;;;;2.03;1.50;;;;;;;;;;5043747;28;20028;-78
2023/05/23 08:30:34;;;;;;;2.78;1.80;;;;;;;;;;5037785;28;20032;-81
2023/05/23 08:33:03;;;;;;;3.00;1.80;;;;;;;;;;5040345;28;20071;-74
2023/05/23 08:35:33;;;;;;;6.20;3.17;;;;;;;;;;5034823;28;20052;-78
2023/05/23 08:38:00;;;;;;;2.57;1.73;;;;;;;;;;5038823;28;20034;-77
2023/05/23 08:40:29;;;;;;;2.67;1.73;;;;;;;;;;5048123;28;20287;-78
2023/05/23 08:42:55;;;;;;;2.75;2.00;;;;;;;;;;5034246;28;20211;-83
2023/05/23 08:45:21;;;;;;;2.67;1.95;;;;;;;;;;5043841;28;20045;-73
2023/05/23 08:47:48;;;;;;;2.85;2.00;;;;;;;;;;5038196;28;20029;-76
2023/05/23 08:50:15;;;;;;;1.77;1.35;;;;;;;;;;5043025;28;20029;-74
2023/05/23 08:52:58;;;;;;;2.42;1.75;;;;;;;;;;5046322;28;20060;-76
2023/05/23 08:55:28;;;;;;;3.22;2.00;;;;;;;;;;5036495;28;20029;-75
2023/05/23 08:57:55;;;;;;;2.00;1.57;;;;;;;;;;5043442;28;20031;-77
2023/05/23 09:00:22;;;;;;;1.85;1.48;;;;;;;;;;5043365;28;20360;-76
2023/05/23 09:02:52;;;;;;;3.72;1.77;;;;;;;;;;5034458;28;20033;-76
2023/05/23 09:05:18;;;;;;;2.50;1.90;;;;;;;;;;5035610;28;20116;-76
2023/05/23 09:07:49;;;;;;;3.05;1.48;;;;;;;;;;5045380;28;20039;-80
2023/05/23 09:10:16;;;;;;;2.35;1.60;;;;;;;;;;5042020;28;20029;-76
2023/05/23 09:12:42;;;;;;;3.40;1.95;;;;;;;;;;5039468;28;20679;-76
2023/05/23 09:15:09;;;;;;;1.83;1.63;;;;;;;;;;5048942;28;20483;-82
2023/05/23 09:17:36;;;;;;;2.63;1.77;;;;;;;;;;5040636;28;20021;-82
2023/05/23 09:20:05;;;;;;;2.10;1.58;;;;;;;;;;5041259;28;20025;-82
2023/05/23 09:22:31;;;;;;;2.53;1.98;;;;;;;;;;5034861;28;20037;-82
2023/05/23 09:24:58;;;;;;;3.00;1.70;;;;;;;;;;5046719;28;20099;-82
2023/05/23 09:27:24;;;;;;;2.88;1.52;;;;;;;;;;5038192;28;20037;-74
2023/05/23 09:29:50;;;;;;;3.95;2.25;;;;;;;;;;5042005;28;20033;-74
2023/05/23 09:32:17;;;;;;;1.63;1.48;;;;;;;;;;5041808;28;20029;-73
2023/05/23 09:34:56;;;;;;;4.00;1.65;;;;;;;;;;5033968;28;20658;-73
2023/05/23 09:37:32;;;;;;;2.72;1.95;;;;;;;;;;5041937;28;20033;-75
2023/05/23 09:39:59;;;;;;;3.50;2.00;;;;;;;;;;5049288;28;20430;-75
2023/05/23 09:42:35;;;;;;;5.63;2.80;;;;;;;;;;5058745;28;20078;-73
2023/05/23 09:45:01;;;;;;;3.67;2.30;;;;;;;;;;5038764;28;20021;-74
2023/05/23 09:47:27;;;;;;;3.17;2.20;;;;;;;;;;5047921;28;20116;-73
2023/05/23 09:49:56;;;;;;;2.88;2.15;;;;;;;;;;5050838;28;20021;-73
2023/05/23 09:52:22;;;;;;;3.35;2.45;;;;;;;;;;5045926;28;20036;-74
2023/05/23 09:54:51;;;;;;;3.60;2.38;;;;;;;;;;5048432;28;20021;-73
2023/05/23 09:57:18;;;;;;;2.63;2.13;;;;;;;;;;5049691;28;20024;-74
2023/05/23 09:59:48;;;;;;;6.10;3.08;;;;;;;;;;5050415;28;20545;-74
2023/05/23 10:02:19;;;;;;;4.75;2.50;;;;;;;;;;5049937;28;20029;-74
2023/05/23 10:04:51;;;;;;;7.28;2.63;;;;;;;;;;5034538;28;20428;-73
2023/05/23 10:07:21;;;;;;;3.30;2.38;;;;;;;;;;5045978;28;20033;-74
2023/05/23 10:09:54;;;;;;;3.90;2.53;;;;;;;;;;5045514;28;20140;-74
2023/05/23 10:12:42;;;;;;;4.95;2.47;;;;;;;;;;5049220;28;20032;-74
2023/05/23 10:15:09;;;;;;;4.07;2.78;;;;;;;;;;5045645;28;20029;-73
2023/05/23 10:18:00;;;;;;;4.50;2.72;;;;;;;;;;5035938;28;20074;-74
2023/05/23 10:20:28;;;;;;;4.78;2.90;;;;;;;;;;5047005;28;20044;-75
2023/05/23 10:22:54;;;;;;;4.38;2.70;;;;;;;;;;5049209;28;20028;-74
2023/05/23 10:25:21;;;;;;;3.38;2.60;;;;;;;;;;5045740;28;20807;-74
2023/05/23 10:27:48;;;;;;;4.88;2.88;;;;;;;;;;5033991;28;20029;-74
2023/05/23 10:30:14;;;;;;;4.00;2.65;;;;;;;;;;5043612;28;20017;-75
2023/05/23 10:32:41;;;;;;;3.72;2.53;;;;;;;;;;5045977;28;20037;-74
2023/05/23 10:35:10;;;;;;;4.00;2.45;;;;;;;;;;5050111;28;20277;-74
2023/05/23 10:37:42;;;;;;;3.40;2.05;;;;;;;;;;5048928;28;20028;-75
2023/05/23 10:40:11;;;;;;;6.93;2.53;;;;;;;;;;5060962;28;20017;-75
2023/05/23 10:42:43;;;;;;;5.05;3.00;;;;;;;;;;5062389;28;20495;-74
2023/05/23 10:45:23;;;;;;;3.60;2.47;;;;;;;;;;5037837;28;20122;-73
2023/05/23 10:47:51;;;;;;;3.15;2.50;;;;;;;;;;5046029;28;20052;-74
2023/05/23 10:50:31;;;;;;;5.78;3.15;;;;;;;;;;5041355;28;20107;-74
2023/05/23 10:52:57;;;;;;;4.30;3.07;;;;;;;;;;5053740;28;20057;-74
2023/05/23 10:55:23;;;;;;;4.68;3.38;;;;;;;;;;5054204;28;20323;-75
2023/05/23 10:58:08;;;;;;;4.93;2.90;;;;;;;;;;5041922;28;20033;-74
2023/05/23 11:00:34;;;;;;;3.65;2.90;;;;;;;;;;5037733;28;20468;-74
2023/05/23 11:03:00;;;;;;;3.47;2.90;;;;;;;;;;5049542;28;20021;-74
2023/05/23 11:05:30;;;;;;;4.90;3.22;;;;;;;;;;5041060;28;20048;-73
2023/05/23 11:08:06;;;;;;;5.20;3.20;;;;;;;;;;5048129;28;20029;-76
2023/05/23 11:10:32;;;;;;;4.07;3.05;;;;;;;;;;5033351;28;20083;-73
2023/05/23 11:13:09;;;;;;;4.78;3.22;;;;;;;;;;5040682;28;20029;-80
2023/05/23 11:15:43;;;;;;;5.00;3.67;;;;;;;;;;5034676;28;20100;-75
2023/05/23 11:18:10;;;;;;;5.80;3.80;;;;;;;;;;5033801;28;20049;-75
2023/05/23 11:20:37;;;;;;;5.82;4.00;;;;;;;;;;5043458;28;20036;-75
2023/05/23 11:23:07;;;;;;;8.38;4.00;;;;;;;;;;5041022;28;20704;-76
2023/05/23 11:25:43;;;;;;;6.45;3.53;;;;;;;;;;5044331;28;20040;-79
2023/05/23 11:28:10;;;;;;;8.05;4.07;;;;;;;;;;5042866;28;20021;-75
2023/05/23 11:30:36;;;;;;;7.07;3.97;;;;;;;;;;5036002;28;20033;-73
2023/05/23 11:33:07;;;;;;;7.20;3.60;;;;;;;;;;5036369;28;20033;-74
2023/05/23 11:35:33;;;;;;;4.82;3.53;;;;;;;;;;5035083;28;20473;-74
2023/05/23 11:37:59;;;;;;;6.10;3.97;;;;;;;;;;5039973;28;20024;-74
2023/05/23 11:40:26;;;;;;;5.25;3.92;;;;;;;;;;5034386;28;20100;-74
2023/05/23 11:42:55;;;;;;;7.90;4.07;;;;;;;;;;5044975;28;20025;-75
2023/05/23 11:45:22;;;;;;;9.63;5.18;;;;;;;;;;5041676;28;20452;-74
2023/05/23 11:47:53;;;;;;;5.32;3.67;;;;;;;;;;5039974;28;20021;-75
2023/05/23 11:50:19;;;;;;;7.28;4.43;;;;;;;;;;5036746;28;20017;-75
2023/05/23 11:52:50;;;;;;;7.55;4.22;;;;;;;;;;5038541;28;20119;-74
2023/05/23 11:55:20;;;;;;;7.90;4.97;;;;;;;;;;5036299;28;20032;-74
2023/05/23 11:57:46;;;;;;;8.63;4.25;;;;;;;;;;5039562;28;20048;-74
2023/05/23 12:00:12;;;;;;;6.85;4.63;;;;;;;;;;5037881;28;20162;-75
2023/05/23 12:02:42;;;;;;;6.90;4.30;;;;;;;;;;5037813;28;20109;-74
2023/05/23 12:05:12;;;;;;;8.95;5.05;;;;;;;;;;5036999;28;20045;-76
2023/05/23 12:07:41;;;;;;;8.43;5.05;;;;;;;;;;5042984;28;20515;-73
2023/05/23 12:10:09;;;;;;;8.32;4.38;;;;;;;;;;5034467;28;20067;-75
2023/05/23 12:12:35;;;;;;;8.77;4.57;;;;;;;;;;5042646;28;20032;-74
2023/05/23 12:15:01;;;;;;;6.70;4.32;;;;;;;;;;5036383;28;20087;-74
2023/05/23 12:17:33;;;;;;;5.20;3.75;;;;;;;;;;5039299;28;20117;-75
2023/05/23 12:20:00;;;;;;;4.93;3.53;;;;;;;;;;5039630;28;20502;-74
2023/05/23 12:22:26;;;;;;;9.10;4.72;;;;;;;;;;5038893;28;20068;-76
2023/05/23 12:24:58;;;;;;;6.60;4.25;;;;;;;;;;5038664;28;20067;-74
2023/05/23 12:27:32;;;;;;;8.98;4.85;;;;;;;;;;5034914;28;20061;-74
2023/05/23 12:30:06;;;;;;;7.28;4.63;;;;;;;;;;5042707;28;20043;-74
2023/05/23 12:32:32;;;;;;;7.00;4.57;;;;;;;;;;5040608;28;20037;-75
2023/05/23 12:34:58;;;;;;;7.85;4.50;;;;;;;;;;5035405;28;20020;-74
2023/05/23 12:37:24;;;;;;;8.88;4.60;;;;;;;;;;5035676;28;20048;-78
2023/05/23 12:39:50;;;;;;;9.80;4.65;;;;;;;;;;5045394;28;20451;-75
2023/05/23 12:42:16;;;;;;;8.30;4.50;;;;;;;;;;5031308;28;20032;-75
2023/05/23 12:44:43;;;;;;;10.43;4.53;;;;;;;;;;5040677;28;20037;-74
2023/05/23 12:47:09;;;;;;;8.13;4.90;;;;;;;;;;5034977;28;20400;-74
2023/05/23 12:49:35;;;;;;;9.48;4.43;;;;;;;;;;5036604;28;20029;-72
2023/05/23 12:52:04;;;;;;;7.10;4.07;;;;;;;;;;5037087;28;20025;-74
2023/05/23 12:54:30;;;;;;;7.72;4.13;;;;;;;;;;5041040;28;20530;-75
2023/05/23 12:56:56;;;;;;;6.93;3.78;;;;;;;;;;5028686;28;20036;-74
2023/05/23 12:59:22;;;;;;;5.95;3.92;;;;;;;;;;5033058;28;20025;-74
2023/05/23 13:01:48;;;;;;;7.32;4.50;;;;;;;;;;5036920;28;20091;-73
2023/05/23 13:04:14;;;;;;;8.65;4.25;;;;;;;;;;5042062;28;20047;-76
2023/05/23 13:06:42;;;;;;;6.07;3.67;;;;;;;;;;5031800;28;20032;-74
2023/05/23 13:09:09;;;;;;;6.65;4.07;;;;;;;;;;5038261;28;20033;-78
2023/05/23 13:11:35;;;;;;;7.80;4.50;;;;;;;;;;5035691;28;20018;-75
2023/05/23 13:14:01;;;;;;;5.88;3.70;;;;;;;;;;5037090;28;20028;-75
2023/05/23 13:16:27;;;;;;;6.88;3.72;;;;;;;;;;5039440;28;20027;-74
2023/05/23 13:18:53;;;;;;;6.53;3.85;;;;;;;;;;5043032;28;20025;-74
2023/05/23 13:21:19;;;;;;;5.35;2.70;;;;;;;;;;5035864;28;20025;-78
2023/05/23 13:23:45;;;;;;;8.05;4.68;;;;;;;;;;5033770;28;20372;-79
2023/05/23 13:26:13;;;;;;;6.70;4.10;;;;;;;;;;5036255;28;20032;-76
2023/05/23 13:28:39;;;;;;;8.45;3.85;;;;;;;;;;5041987;28;20033;-80
2023/05/23 13:31:05;;;;;;;9.73;4.75;;;;;;;;;;5029021;28;20060;-79
2023/05/23 13:33:31;;;;;;;7.43;4.13;;;;;;;;;;5034476;28;20045;-75
2023/05/23 13:35:57;;;;;;;8.02;4.55;;;;;;;;;;5040331;28;20036;-75
2023/05/23 13:38:23;;;;;;;8.65;4.00;;;;;;;;;;5034926;28;20021;-77
2023/05/23 13:40:53;;;;;;;7.63;4.40;;;;;;;;;;5039476;28;20033;-75
2023/05/23 13:43:18;;;;;;;7.70;4.45;;;;;;;;;;5034237;28;20379;-76
2023/05/23 13:45:46;;;;;;;9.25;4.30;;;;;;;;;;5040004;28;20029;-74
2023/05/23 13:48:12;;;;;;;9.40;4.50;;;;;;;;;;5045895;28;20029;-76
2023/05/23 13:50:37;;;;;;;7.22;3.88;;;;;;;;;;5041671;28;20427;-75
2023/05/23 13:53:11;;;;;;;6.22;4.20;;;;;;;;;;5034947;28;20052;-75
2023/05/23 13:55:37;;;;;;;8.43;4.18;;;;;;;;;;5059406;28;20388;-76
2023/05/23 13:58:03;;;;;;;7.05;4.20;;;;;;;;;;5036303;28;20030;-76
2023/05/23 14:00:28;;;;;;;6.90;3.95;;;;;;;;;;5045551;28;20369;-77
2023/05/23 14:02:55;;;;;;;6.95;4.50;;;;;;;;;;5037076;28;20120;-75
2023/05/23 14:05:21;;;;;;;8.95;3.33;;;;;;;;;;5034285;28;20037;-76
2023/05/23 14:07:47;;;;;;;9.10;4.50;;;;;;;;;;5039676;28;20032;-75
2023/05/23 14:10:14;;;;;;;8.82;4.07;;;;;;;;;;5044580;28;20039;-76
2023/05/23 14:12:40;;;;;;;6.47;3.90;;;;;;;;;;5045170;28;20051;-76
2023/05/23 14:15:07;;;;;;;5.82;3.78;;;;;;;;;;5039337;28;20037;-75
2023/05/23 14:17:33;;;;;;;8.15;4.30;;;;;;;;;;5041142;28;20082;-77
2023/05/23 14:19:59;;;;;;;7.05;3.90;;;;;;;;;;5038889;28;20025;-75
2023/05/23 14:22:25;;;;;;;6.82;4.10;;;;;;;;;;5037480;28;20033;-75
2023/05/23 14:24:51;;;;;;;6.80;3.22;;;;;;;;;;5037105;28;20776;-76
2023/05/23 14:27:17;;;;;;;7.55;3.70;;;;;;;;;;5032012;28;20045;-75
2023/05/23 14:29:45;;;;;;;8.25;4.53;;;;;;;;;;5038611;28;20054;-75
2023/05/23 14:32:12;;;;;;;8.68;4.25;;;;;;;;;;5032609;28;20040;-74
2023/05/23 14:34:38;;;;;;;6.80;3.97;;;;;;;;;;5040115;28;20116;-72
2023/05/23 14:37:04;;;;;;;4.72;3.00;;;;;;;;;;5035660;28;20035;-76
2023/05/23 14:39:29;;;;;;;6.82;4.25;;;;;;;;;;5036431;28;20029;-75
2023/05/23 14:41:55;;;;;;;7.55;3.38;;;;;;;;;;5047467;28;20024;-74
2023/05/23 14:44:21;;;;;;;5.22;3.25;;;;;;;;;;5036634;28;20059;-73